logo
Rechercher aéroport 
image banner adimage banner adimage banner ad
image banner ad

4V8 - Deerfield Valley Rgnl

Situé à West Dover, United States

ICAO - 4V8, IATA -

Données fournies par Airmate  

Information générale

Coordonnées: N42°55'38" W72°51'56"
Élévation : 1953 feet MSL.
Variation magnétique : -15° East
Voir autres Aéroports à Vermont

Données opérationnelles

Special qualification required
Heure actuelle UTC:
Heure actuelle locale:
Météo à : KDDH - William H Morse State ( 31 km )
METAR: KDDH 220754Z AUTO 00000KT 3SM BR CLR 15/14 A2992 RMK AO2 SLP128 T01500144 $
Voir NOTAMs / SUP AIP / TFR affectant cet aéroport [VIEW]
Fréquences de communication: [VIEW]

Pistes:

Identifiant RWYQFULongueur (ft)Largeur (ft)SurfaceLDA (ft)
01350°265075ASPH
19170°265075ASPH

Coordonnées de l'aéroport

Adresse: West Dover United States

Vue satellite de 4V8